createdAt,value
2019-03-01T00:00:58.228Z,5.70
2019-03-01T00:03:47.592Z,6.87
2019-03-01T00:06:42.394Z,3.80
2019-03-01T00:09:40.792Z,9.53
2019-03-01T00:13:18.929Z,4.13
2019-03-01T00:16:57.753Z,9.03
2019-03-01T00:20:15.509Z,4.40
2019-03-01T00:23:30.689Z,2.53
2019-03-01T00:27:03.161Z,3.60
2019-03-01T00:30:22.908Z,5.70
2019-03-01T00:33:40.999Z,6.90
2019-03-01T00:37:07.405Z,4.40
2019-03-01T00:40:16.767Z,4.17
2019-03-01T00:43:54.748Z,5.13
2019-03-01T00:46:42.681Z,6.27
2019-03-01T00:49:32.878Z,4.70
2019-03-01T00:52:21.123Z,3.13
2019-03-01T00:55:09.413Z,8.87
2019-03-01T00:57:57.730Z,6.30
2019-03-01T01:00:48.361Z,5.23
2019-03-01T01:03:36.523Z,4.73
2019-03-01T01:06:24.486Z,8.23
2019-03-01T01:09:12.590Z,5.30
2019-03-01T01:12:00.774Z,7.73
2019-03-01T01:14:48.859Z,6.93
2019-03-01T01:17:36.778Z,2.67
2019-03-01T01:20:24.691Z,3.97
2019-03-01T01:23:12.384Z,3.40
2019-03-01T01:26:00.271Z,4.73
2019-03-01T01:28:48.063Z,4.27
2019-03-01T01:31:35.970Z,4.00
2019-03-01T01:34:23.971Z,3.70
2019-03-01T01:37:11.920Z,6.23
2019-03-01T01:39:59.900Z,6.57
2019-03-01T01:42:47.982Z,5.00
2019-03-01T01:45:35.942Z,4.17
2019-03-01T01:48:23.844Z,4.47
2019-03-01T01:51:11.508Z,2.70
2019-03-01T01:53:59.860Z,5.03
2019-03-01T01:56:47.719Z,4.20
2019-03-01T01:59:35.881Z,4.03
2019-03-01T02:02:23.705Z,3.87
2019-03-01T02:05:12.055Z,5.53
2019-03-01T02:07:59.725Z,5.83
2019-03-01T02:10:47.966Z,4.90
2019-03-01T02:13:36.229Z,4.23
2019-03-01T02:16:24.473Z,5.23
2019-03-01T02:19:12.501Z,8.37
2019-03-01T02:22:00.330Z,7.17
2019-03-01T02:24:48.244Z,4.93
2019-03-01T02:27:36.141Z,3.27
2019-03-01T02:30:25.941Z,6.10
2019-03-01T02:33:13.711Z,3.50
2019-03-01T02:36:01.553Z,9.17
2019-03-01T02:38:49.699Z,4.60
2019-03-01T02:41:37.799Z,4.97
2019-03-01T02:44:25.732Z,3.77
2019-03-01T02:47:13.882Z,5.27
2019-03-01T02:50:01.494Z,4.23
2019-03-01T02:52:49.551Z,3.80
2019-03-01T02:55:37.634Z,2.90
2019-03-01T02:58:25.799Z,3.47
2019-03-01T03:01:13.900Z,5.53
2019-03-01T03:04:02.211Z,5.03
2019-03-01T03:07:05.163Z,4.00
2019-03-01T03:09:53.475Z,5.23
2019-03-01T03:12:41.818Z,4.17
2019-03-01T03:15:38.186Z,5.47
2019-03-01T03:18:26.632Z,3.70
2019-03-01T03:21:14.303Z,5.00
2019-03-01T03:24:02.718Z,5.07
2019-03-01T03:26:50.936Z,6.97
2019-03-01T03:29:38.855Z,5.03
2019-03-01T03:32:26.910Z,5.57
2019-03-01T03:35:15.150Z,4.77
2019-03-01T03:38:03.122Z,4.87
2019-03-01T03:40:51.065Z,3.90
2019-03-01T03:43:39.310Z,3.23
2019-03-01T03:46:27.863Z,4.00
2019-03-01T03:49:15.777Z,5.00
2019-03-01T03:52:03.819Z,1.93
2019-03-01T03:54:51.568Z,1.57
2019-03-01T03:57:40.006Z,2.43
2019-03-01T04:00:27.568Z,7.23
2019-03-01T04:03:15.805Z,3.07
2019-03-01T04:06:03.728Z,3.47
2019-03-01T04:08:51.984Z,9.23
2019-03-01T04:11:39.898Z,4.27
2019-03-01T04:14:27.896Z,5.23
2019-03-01T04:17:15.668Z,2.73
2019-03-01T04:20:03.680Z,4.73
2019-03-01T04:22:51.254Z,3.37
2019-03-01T04:25:39.325Z,4.20
2019-03-01T04:28:27.244Z,5.53
2019-03-01T04:31:15.367Z,4.93
2019-03-01T04:34:03.219Z,6.77
2019-03-01T04:36:51.265Z,3.23
2019-03-01T04:39:39.548Z,4.03
2019-03-01T04:42:27.945Z,5.77
2019-03-01T04:45:15.902Z,4.50
2019-03-01T04:48:04.151Z,3.67
2019-03-01T04:50:51.978Z,3.77
2019-03-01T04:53:39.951Z,4.03
2019-03-01T04:56:28.089Z,4.27
2019-03-01T04:59:15.853Z,3.23
2019-03-01T05:02:03.728Z,2.50
2019-03-01T05:04:52.059Z,5.37
2019-03-01T05:07:40.295Z,4.50
2019-03-01T05:10:27.889Z,7.10
2019-03-01T05:13:16.027Z,5.70
2019-03-01T05:16:03.992Z,4.67
2019-03-01T05:18:51.950Z,3.60
2019-03-01T05:21:39.825Z,3.60
2019-03-01T05:24:28.042Z,4.60
2019-03-01T05:27:16.297Z,7.63
2019-03-01T05:30:04.771Z,3.53
2019-03-01T05:32:52.952Z,4.53
2019-03-01T05:35:41.095Z,3.80
2019-03-01T05:38:29.038Z,7.97
2019-03-01T05:41:17.310Z,4.80
2019-03-01T05:44:05.336Z,7.77
2019-03-01T05:46:53.279Z,2.97
2019-03-01T05:49:41.331Z,3.23
2019-03-01T05:52:29.200Z,4.53
2019-03-01T05:55:17.063Z,4.73
2019-03-01T05:58:32.973Z,3.83
2019-03-01T06:01:27.773Z,2.83
2019-03-01T06:04:34.992Z,6.13
2019-03-01T06:08:25.805Z,5.57
2019-03-01T06:11:57.249Z,4.30
2019-03-01T06:15:35.412Z,5.53
2019-03-01T06:19:06.816Z,4.67
2019-03-01T06:22:29.456Z,3.70
2019-03-01T06:25:42.933Z,5.50
2019-03-01T06:28:58.784Z,2.23
2019-03-01T06:32:36.924Z,3.97
2019-03-01T06:36:01.787Z,6.17
2019-03-01T06:39:56.500Z,3.50
2019-03-01T06:42:52.389Z,3.97
2019-03-01T06:46:18.811Z,5.10
2019-03-01T06:49:15.543Z,3.27
2019-03-01T06:52:03.654Z,5.23
2019-03-01T06:54:51.529Z,4.33
2019-03-01T06:57:38.992Z,3.43
2019-03-01T07:00:28.477Z,6.93
2019-03-01T07:03:16.592Z,4.60
2019-03-01T07:06:04.575Z,7.87
2019-03-01T07:08:52.674Z,9.60
2019-03-01T07:11:40.650Z,6.70
2019-03-01T07:14:28.981Z,5.53
2019-03-01T07:17:17.233Z,3.80
2019-03-01T07:20:05.361Z,4.07
2019-03-01T07:22:53.318Z,4.07
2019-03-01T07:25:43.468Z,6.73
2019-03-01T07:28:31.652Z,4.03
2019-03-01T07:31:19.494Z,7.53
2019-03-01T07:34:07.447Z,7.17
2019-03-01T07:36:55.572Z,3.93
2019-03-01T07:39:43.728Z,5.83
2019-03-01T07:42:31.778Z,6.43
2019-03-01T07:45:20.593Z,6.20
2019-03-01T07:48:08.619Z,5.97
2019-03-01T07:50:56.549Z,7.90
2019-03-01T07:53:44.309Z,10.73
2019-03-01T07:56:32.311Z,6.10
2019-03-01T07:59:20.466Z,8.43
2019-03-01T08:02:08.653Z,4.57
2019-03-01T08:04:56.665Z,5.67
2019-03-01T08:07:44.619Z,3.40
2019-03-01T08:10:32.572Z,6.77
2019-03-01T08:13:20.872Z,5.37
2019-03-01T08:16:09.078Z,5.43
2019-03-01T08:18:57.329Z,5.77
2019-03-01T08:21:45.908Z,6.33
2019-03-01T08:24:34.837Z,3.23
2019-03-01T08:27:22.594Z,8.67
2019-03-01T08:30:13.533Z,4.70
2019-03-01T08:33:02.717Z,4.83
2019-03-01T08:35:50.868Z,2.13
2019-03-01T08:38:38.864Z,5.87
2019-03-01T08:41:26.579Z,2.73
2019-03-01T08:44:14.375Z,4.13
2019-03-01T08:47:02.212Z,2.83
2019-03-01T08:49:50.436Z,3.73
2019-03-01T08:52:40.485Z,5.33
2019-03-01T08:55:27.944Z,3.87
2019-03-01T08:58:15.935Z,5.27
2019-03-01T09:01:08.365Z,3.97
2019-03-01T09:03:58.546Z,2.93
2019-03-01T09:06:47.732Z,4.00
2019-03-01T09:09:35.683Z,4.40
2019-03-01T09:12:23.647Z,1.93
2019-03-01T09:15:13.250Z,5.00
2019-03-01T09:18:00.934Z,3.90
2019-03-01T09:20:49.197Z,4.50
2019-03-01T09:23:36.806Z,1.37
2019-03-01T09:26:24.641Z,5.73
2019-03-01T09:29:18.308Z,4.77
2019-03-01T09:32:02.496Z,8.33
2019-03-01T09:34:53.922Z,3.20
2019-03-01T09:37:41.614Z,2.57
2019-03-01T09:40:29.754Z,4.67
2019-03-01T09:43:17.525Z,3.90
2019-03-01T09:46:05.781Z,2.83
2019-03-01T09:48:53.515Z,4.27
2019-03-01T09:51:43.715Z,4.97
2019-03-01T09:54:31.169Z,2.30
2019-03-01T09:57:20.490Z,3.90
2019-03-01T10:00:10.591Z,5.70
2019-03-01T10:02:58.850Z,6.47
2019-03-01T10:05:46.686Z,4.90
2019-03-01T10:08:34.612Z,3.30
2019-03-01T10:11:22.624Z,7.40
2019-03-01T10:14:10.748Z,5.20
2019-03-01T10:16:58.605Z,5.93
2019-03-01T10:19:46.865Z,4.63
2019-03-01T10:22:34.805Z,4.73
2019-03-01T10:25:22.802Z,5.90
2019-03-01T10:28:10.669Z,4.40
2019-03-01T10:30:58.820Z,3.10
2019-03-01T10:33:46.984Z,4.63
2019-03-01T10:36:34.759Z,7.07
2019-03-01T10:39:22.649Z,7.43
2019-03-01T10:42:10.799Z,5.30
2019-03-01T10:44:59.097Z,5.50
2019-03-01T10:47:47.151Z,6.80
2019-03-01T10:50:34.668Z,6.80
2019-03-01T10:53:22.715Z,9.23
2019-03-01T10:56:11.057Z,6.93
2019-03-01T10:58:59.108Z,6.13
2019-03-01T11:01:47.078Z,5.90
2019-03-01T11:04:34.955Z,5.43
2019-03-01T11:07:22.925Z,6.00
2019-03-01T11:10:12.781Z,6.70
2019-03-01T11:13:00.742Z,3.60
2019-03-01T11:15:48.682Z,4.73
2019-03-01T11:18:36.876Z,6.07
2019-03-01T11:21:25.247Z,3.23
2019-03-01T11:24:13.028Z,7.17
2019-03-01T11:27:01.127Z,6.00
2019-03-01T11:29:49.357Z,2.97
2019-03-01T11:32:37.221Z,3.67
2019-03-01T11:35:25.339Z,5.77
2019-03-01T11:38:13.424Z,7.37
2019-03-01T11:41:01.821Z,3.27
2019-03-01T11:43:49.996Z,4.03
2019-03-01T11:46:38.544Z,3.37
2019-03-01T11:49:26.683Z,6.63
2019-03-01T11:52:14.599Z,5.63
2019-03-01T11:55:02.537Z,3.97
2019-03-01T11:57:50.488Z,2.93
2019-03-01T12:00:38.388Z,3.70
2019-03-01T12:03:26.230Z,3.83
2019-03-01T12:06:14.085Z,2.57
2019-03-01T12:09:02.683Z,2.33
2019-03-01T12:11:50.556Z,3.70
2019-03-01T12:14:38.705Z,4.10
2019-03-01T12:17:26.825Z,3.10
2019-03-01T12:20:16.673Z,3.10
2019-03-01T12:23:04.829Z,4.07
2019-03-01T12:25:53.045Z,1.47
2019-03-01T12:28:41.195Z,2.53
2019-03-01T12:31:29.319Z,3.43
2019-03-01T12:34:17.374Z,2.70
2019-03-01T12:37:05.035Z,4.83
2019-03-01T12:39:52.952Z,2.90
2019-03-01T12:42:40.567Z,6.20
2019-03-01T12:45:28.789Z,6.47
2019-03-01T12:48:16.711Z,3.27
2019-03-01T12:51:04.630Z,2.27
2019-03-01T12:53:52.572Z,3.77
2019-03-01T12:56:40.627Z,3.63
2019-03-01T12:59:28.465Z,4.70
2019-03-01T13:02:16.449Z,3.53
2019-03-01T13:05:04.626Z,2.13
2019-03-01T13:07:54.455Z,3.80
2019-03-01T13:10:42.509Z,4.00
2019-03-01T13:13:30.254Z,5.53
2019-03-01T13:16:18.509Z,3.33
2019-03-01T13:19:06.700Z,5.40
2019-03-01T13:21:54.570Z,2.03
2019-03-01T13:24:42.771Z,2.00
2019-03-01T13:27:30.694Z,4.30
2019-03-01T13:30:20.182Z,3.03
2019-03-01T13:33:08.535Z,2.27
2019-03-01T13:35:59.917Z,2.63
2019-03-01T13:38:47.073Z,5.70
2019-03-01T13:41:37.205Z,1.83
2019-03-01T13:44:24.769Z,5.83
2019-03-01T13:47:12.840Z,3.47
2019-03-01T13:50:05.697Z,1.93
2019-03-01T13:52:50.864Z,2.80
2019-03-01T13:55:38.711Z,3.90
2019-03-01T13:58:27.661Z,1.30
2019-03-01T14:01:16.131Z,5.20
2019-03-01T14:04:04.216Z,2.43
2019-03-01T14:06:52.492Z,2.83
2019-03-01T14:09:40.460Z,3.17
2019-03-01T14:12:28.591Z,4.57
2019-03-01T14:15:17.158Z,2.00
2019-03-01T14:18:04.749Z,2.40
2019-03-01T14:20:54.345Z,2.00
2019-03-01T14:23:42.552Z,1.67
2019-03-01T14:26:30.825Z,6.20
2019-03-01T14:29:18.527Z,2.10
2019-03-01T14:32:06.545Z,1.27
2019-03-01T14:34:54.775Z,1.63
2019-03-01T14:37:42.754Z,5.17
2019-03-01T14:40:30.436Z,3.90
2019-03-01T14:43:20.176Z,1.77
2019-03-01T14:46:08.282Z,1.37
2019-03-01T14:48:56.313Z,1.67
2019-03-01T14:51:46.893Z,3.23
2019-03-01T14:54:33.509Z,2.33
2019-03-01T14:57:31.305Z,3.10
2019-03-01T15:00:35.117Z,1.57
2019-03-01T15:03:33.079Z,4.17
2019-03-01T15:06:21.100Z,1.80
2019-03-01T15:09:09.832Z,0.77
2019-03-01T15:11:57.735Z,2.03
2019-03-01T15:14:49.671Z,4.93
2019-03-01T15:17:35.139Z,1.27
2019-03-01T15:20:24.312Z,1.77
2019-03-01T15:23:12.514Z,1.83
2019-03-01T15:26:00.527Z,0.67
2019-03-01T15:28:55.776Z,2.10
2019-03-01T15:31:43.848Z,1.43
2019-03-01T15:34:31.993Z,4.33
2019-03-01T15:37:20.034Z,1.57
2019-03-01T15:40:08.340Z,1.50
2019-03-01T15:42:56.764Z,0.60
2019-03-01T15:45:44.326Z,1.33
2019-03-01T15:48:34.471Z,2.33
2019-03-01T15:51:21.713Z,1.43
2019-03-01T15:54:09.950Z,0.90
2019-03-01T15:56:57.929Z,1.97
2019-03-01T15:59:47.832Z,2.57
2019-03-01T16:02:35.859Z,1.77
2019-03-01T16:05:23.743Z,2.27
2019-03-01T16:08:11.777Z,0.90
2019-03-01T16:10:59.786Z,1.20
2019-03-01T16:13:49.309Z,1.00
2019-03-01T16:16:37.510Z,1.67
2019-03-01T16:19:25.592Z,2.30
2019-03-01T16:22:15.432Z,2.73
2019-03-01T16:25:03.845Z,1.20
2019-03-01T16:27:54.292Z,1.93
2019-03-01T16:30:42.015Z,3.00
2019-03-01T16:33:30.089Z,1.10
2019-03-01T16:36:26.523Z,2.37
2019-03-01T16:39:14.031Z,1.50
2019-03-01T16:42:02.199Z,1.23
2019-03-01T16:44:50.518Z,2.00
2019-03-01T16:47:42.123Z,1.83
2019-03-01T16:50:27.894Z,1.10
2019-03-01T16:53:15.804Z,2.70
2019-03-01T16:56:03.801Z,3.90
2019-03-01T16:58:51.816Z,1.63
2019-03-01T17:01:40.692Z,2.10
2019-03-01T17:04:29.130Z,2.57
2019-03-01T17:07:16.997Z,2.27
2019-03-01T17:10:05.150Z,1.20
2019-03-01T17:12:53.348Z,2.13
2019-03-01T17:15:41.150Z,1.63
2019-03-01T17:18:29.048Z,3.13
2019-03-01T17:21:17.227Z,1.87
2019-03-01T17:24:05.512Z,2.77
2019-03-01T17:26:53.344Z,1.47
2019-03-01T17:29:43.507Z,3.10
2019-03-01T17:32:34.245Z,2.87
2019-03-01T17:35:21.203Z,2.63
2019-03-01T17:38:09.089Z,3.27
2019-03-01T17:40:56.772Z,1.60
2019-03-01T17:43:44.890Z,4.33
2019-03-01T17:46:33.829Z,1.60
2019-03-01T17:49:21.859Z,4.70
2019-03-01T17:52:09.523Z,1.70
2019-03-01T17:55:01.294Z,2.73
2019-03-01T17:57:46.977Z,3.40
2019-03-01T18:00:36.475Z,3.70
2019-03-01T18:03:24.481Z,2.27
2019-03-01T18:06:16.420Z,2.50
2019-03-01T18:09:02.312Z,2.37
2019-03-01T18:11:50.503Z,1.83
2019-03-01T18:14:38.955Z,2.47
2019-03-01T18:17:26.947Z,3.13
2019-03-01T18:20:15.085Z,5.33
2019-03-01T18:23:03.176Z,2.13
2019-03-01T18:25:51.988Z,3.23
2019-03-01T18:28:40.270Z,3.70
2019-03-01T18:31:34.303Z,2.80
2019-03-01T18:34:17.653Z,2.63
2019-03-01T18:37:19.036Z,3.37
2019-03-01T18:39:54.818Z,3.40
2019-03-01T18:42:43.934Z,3.60
2019-03-01T18:45:31.866Z,3.63
2019-03-01T18:48:20.026Z,6.33
2019-03-01T18:51:08.141Z,4.40
2019-03-01T18:53:56.090Z,3.40
2019-03-01T18:56:44.291Z,3.53
2019-03-01T18:59:32.485Z,4.47
2019-03-01T19:02:20.670Z,4.43
2019-03-01T19:05:08.922Z,5.30
2019-03-01T19:07:56.768Z,3.37
2019-03-01T19:10:53.735Z,4.70
2019-03-01T19:13:34.714Z,3.53
2019-03-01T19:16:25.341Z,4.60
2019-03-01T19:19:13.277Z,5.17
2019-03-01T19:22:01.223Z,4.53
2019-03-01T19:24:50.173Z,6.67
2019-03-01T19:27:39.241Z,5.37
2019-03-01T19:30:27.414Z,4.97
2019-03-01T19:33:17.275Z,4.67
2019-03-01T19:36:05.206Z,4.50
2019-03-01T19:38:53.145Z,3.87
2019-03-01T19:41:40.988Z,5.20
2019-03-01T19:44:29.777Z,5.57
2019-03-01T19:47:17.525Z,3.80
2019-03-01T19:50:06.800Z,3.93
2019-03-01T19:52:54.918Z,3.37
2019-03-01T19:55:46.885Z,3.73
2019-03-01T19:58:44.218Z,3.87
2019-03-01T20:01:32.916Z,5.73
2019-03-01T20:04:21.846Z,6.77
2019-03-01T20:07:16.113Z,2.83
2019-03-01T20:10:05.391Z,6.03
2019-03-01T20:12:54.517Z,3.73
2019-03-01T20:15:47.452Z,2.43
2019-03-01T20:18:41.749Z,2.07
2019-03-01T20:21:35.326Z,3.40
2019-03-01T20:24:24.578Z,7.93
2019-03-01T20:27:13.492Z,1.93
2019-03-01T20:30:05.189Z,2.87
2019-03-01T20:32:53.288Z,3.23
2019-03-01T20:35:41.304Z,3.97
2019-03-01T20:38:29.309Z,2.07
2019-03-01T20:41:17.446Z,4.53
2019-03-01T20:44:05.510Z,2.10
2019-03-01T20:46:54.214Z,3.43
2019-03-01T20:49:42.043Z,2.33
2019-03-01T20:52:29.907Z,2.10
2019-03-01T20:55:18.363Z,3.50
2019-03-01T20:58:06.664Z,2.47
2019-03-01T21:00:54.538Z,3.27
2019-03-01T21:03:42.648Z,4.03
2019-03-01T21:06:30.873Z,2.80
2019-03-01T21:09:20.192Z,3.67
2019-03-01T21:12:08.033Z,4.50
2019-03-01T21:14:58.668Z,4.13
2019-03-01T21:17:45.340Z,3.23
2019-03-01T21:20:33.104Z,3.20
2019-03-01T21:23:21.198Z,5.13
2019-03-01T21:26:12.111Z,5.30
2019-03-01T21:28:58.863Z,5.03
2019-03-01T21:31:46.914Z,6.93
2019-03-01T21:34:38.333Z,8.33
2019-03-01T21:37:24.699Z,8.13
2019-03-01T21:40:12.753Z,9.37
2019-03-01T21:43:01.214Z,6.27
2019-03-01T21:45:49.196Z,6.57
2019-03-01T21:48:36.930Z,7.43
2019-03-01T21:51:24.707Z,7.20
2019-03-01T21:54:12.583Z,8.67
2019-03-01T21:57:02.234Z,9.97
2019-03-01T21:59:52.526Z,7.83
2019-03-01T22:02:39.911Z,7.80
2019-03-01T22:05:27.962Z,7.33
2019-03-01T22:08:16.289Z,8.60
2019-03-01T22:11:04.661Z,9.50
2019-03-01T22:13:52.444Z,7.80
2019-03-01T22:16:40.114Z,11.53
2019-03-01T22:19:30.497Z,8.00
2019-03-01T22:22:17.528Z,9.57
2019-03-01T22:25:07.963Z,10.10
2019-03-01T22:27:57.707Z,12.30
2019-03-01T22:30:45.556Z,8.50
2019-03-01T22:33:33.521Z,11.10
2019-03-01T22:36:21.504Z,7.30
2019-03-01T22:39:09.500Z,10.00
2019-03-01T22:41:57.652Z,9.80
2019-03-01T22:44:45.987Z,7.60
2019-03-01T22:47:36.075Z,12.00
2019-03-01T22:50:24.083Z,11.37
2019-03-01T22:53:12.008Z,7.73
2019-03-01T22:56:00.066Z,10.93
2019-03-01T22:58:48.104Z,8.90
2019-03-01T23:01:48.734Z,9.00
2019-03-01T23:04:36.895Z,7.50
2019-03-01T23:07:26.363Z,7.57
2019-03-01T23:10:15.070Z,8.33
2019-03-01T23:13:03.258Z,8.33
2019-03-01T23:15:51.220Z,8.77
2019-03-01T23:18:40.552Z,8.00
2019-03-01T23:21:28.642Z,10.03
2019-03-01T23:24:16.956Z,7.10
2019-03-01T23:27:04.950Z,9.67
2019-03-01T23:29:54.336Z,8.77
2019-03-01T23:32:42.896Z,8.30
2019-03-01T23:35:30.517Z,7.90
2019-03-01T23:38:18.479Z,8.23
2019-03-01T23:41:07.768Z,10.63
2019-03-01T23:43:55.922Z,8.60
2019-03-01T23:46:43.509Z,9.67
2019-03-01T23:49:31.849Z,9.23
2019-03-01T23:52:22.890Z,6.30
2019-03-01T23:55:09.710Z,8.53
2019-03-01T23:58:05.779Z,8.53
